createdAt,value
2019-01-04T00:01:27.457Z,101611.00
2019-01-04T00:04:29.494Z,101613.00
2019-01-04T00:07:31.375Z,101612.66
2019-01-04T00:10:33.223Z,101621.11
2019-01-04T00:13:35.187Z,101618.08
2019-01-04T00:16:37.055Z,101616.05
2019-01-04T00:19:39.025Z,101610.98
2019-01-04T00:22:40.997Z,101613.34
2019-01-04T00:25:43.029Z,101614.70
2019-01-04T00:28:44.900Z,101621.45
2019-01-04T00:31:46.794Z,101625.64
2019-01-04T00:34:48.681Z,101632.24
2019-01-04T00:37:50.616Z,101625.51
2019-01-04T00:40:52.555Z,101629.35
2019-01-04T00:43:54.528Z,101631.55
2019-01-04T00:46:56.541Z,101637.30
2019-01-04T00:49:58.592Z,101639.33
2019-01-04T00:53:00.671Z,101641.69
2019-01-04T00:56:21.491Z,101646.59
2019-01-04T00:59:33.324Z,101646.44
2019-01-04T01:02:58.456Z,101652.83
2019-01-04T01:06:12.932Z,101652.19
2019-01-04T01:09:24.535Z,101650.81
2019-01-04T01:12:51.707Z,101650.47
2019-01-04T01:15:57.172Z,101647.77
2019-01-04T01:19:34.191Z,101656.91
2019-01-04T01:22:54.858Z,101652.18
2019-01-04T01:26:24.840Z,101647.29
2019-01-04T01:29:53.195Z,101659.77
2019-01-04T01:33:20.020Z,101657.23
2019-01-04T01:36:34.103Z,101651.50
2019-01-04T01:40:11.821Z,101649.81
2019-01-04T01:43:26.145Z,101654.02
2019-01-04T01:46:34.741Z,101652.69
2019-01-04T01:49:43.070Z,101649.63
2019-01-04T01:52:44.992Z,101660.11
2019-01-04T01:55:46.875Z,101656.90
2019-01-04T01:58:49.025Z,101654.88
2019-01-04T02:01:50.922Z,101656.90
2019-01-04T02:04:52.793Z,101648.47
2019-01-04T02:07:55.677Z,101652.16
2019-01-04T02:10:57.619Z,101647.08
2019-01-04T02:13:59.501Z,101641.69
2019-01-04T02:17:01.470Z,101640.84
2019-01-04T02:20:05.062Z,101638.14
2019-01-04T02:23:06.950Z,101640.83
2019-01-04T02:26:08.958Z,101638.45
2019-01-04T02:29:10.865Z,101630.53
2019-01-04T02:32:12.774Z,101630.17
2019-01-04T02:35:14.638Z,101632.57
2019-01-04T02:38:16.538Z,101632.06
2019-01-04T02:41:19.539Z,101632.73
2019-01-04T02:44:21.456Z,101628.52
2019-01-04T02:47:23.486Z,101624.81
2019-01-04T02:50:25.384Z,101619.23
2019-01-04T02:53:28.947Z,101618.06
2019-01-04T02:56:30.857Z,101619.91
2019-01-04T02:59:32.870Z,101612.30
2019-01-04T03:02:34.750Z,101610.61
2019-01-04T03:05:36.684Z,101609.78
2019-01-04T03:08:38.527Z,101610.59
2019-01-04T03:11:40.405Z,101604.86
2019-01-04T03:14:42.266Z,101597.11
2019-01-04T03:17:45.299Z,101604.38
2019-01-04T03:20:47.139Z,101608.59
2019-01-04T03:23:49.112Z,101612.30
2019-01-04T03:26:51.000Z,101612.81
2019-01-04T03:29:53.119Z,101615.35
2019-01-04T03:32:55.027Z,101613.66
2019-01-04T03:35:57.025Z,101606.73
2019-01-04T03:38:58.926Z,101613.84
2019-01-04T03:42:01.104Z,101611.60
2019-01-04T03:45:04.831Z,101609.23
2019-01-04T03:48:06.898Z,101612.61
2019-01-04T03:51:08.993Z,101611.25
2019-01-04T03:54:11.010Z,101606.87
2019-01-04T03:57:12.921Z,101603.14
2019-01-04T04:00:14.916Z,101605.19
2019-01-04T04:03:16.800Z,101605.53
2019-01-04T04:06:20.509Z,101595.91
2019-01-04T04:09:22.419Z,101594.04
2019-01-04T04:12:24.355Z,101592.70
2019-01-04T04:15:26.215Z,101594.41
2019-01-04T04:18:28.128Z,101593.73
2019-01-04T04:21:30.100Z,101588.69
2019-01-04T04:24:32.036Z,101578.56
2019-01-04T04:27:33.904Z,101575.55
2019-01-04T04:30:35.918Z,101576.21
2019-01-04T04:33:37.800Z,101575.02
2019-01-04T04:36:39.747Z,101570.81
2019-01-04T04:39:41.696Z,101568.77
2019-01-04T04:42:43.568Z,101566.76
2019-01-04T04:45:45.493Z,101569.96
2019-01-04T04:48:48.628Z,101564.72
2019-01-04T04:51:50.575Z,101570.81
2019-01-04T04:54:52.799Z,101569.30
2019-01-04T04:57:54.781Z,101571.48
2019-01-04T05:00:56.748Z,101567.80
2019-01-04T05:03:58.700Z,101572.01
2019-01-04T05:07:00.702Z,101567.14
2019-01-04T05:10:02.690Z,101567.48
2019-01-04T05:13:04.672Z,101559.03
2019-01-04T05:16:06.559Z,101559.03
2019-01-04T05:19:08.543Z,101560.89
2019-01-04T05:22:10.468Z,101552.97
2019-01-04T05:25:12.388Z,101562.91
2019-01-04T05:28:14.308Z,101553.60
2019-01-04T05:31:16.391Z,101558.32
2019-01-04T05:34:19.218Z,101557.97
2019-01-04T05:37:21.536Z,101557.44
2019-01-04T05:40:23.628Z,101558.28
2019-01-04T05:43:25.550Z,101554.18
2019-01-04T05:46:27.444Z,101554.52
2019-01-04T05:49:29.537Z,101555.50
2019-01-04T05:52:31.477Z,101559.86
2019-01-04T05:55:33.461Z,101564.05
2019-01-04T05:58:35.429Z,101562.85
2019-01-04T06:01:37.453Z,101560.30
2019-01-04T06:04:39.424Z,101564.67
2019-01-04T06:07:41.346Z,101561.98
2019-01-04T06:10:43.304Z,101572.61
2019-01-04T06:13:45.264Z,101577.86
2019-01-04T06:16:47.175Z,101584.81
2019-01-04T06:19:49.180Z,101590.86
2019-01-04T06:22:51.141Z,101600.66
2019-01-04T06:25:53.093Z,101596.61
2019-01-04T06:28:55.058Z,101592.91
2019-01-04T06:31:57.127Z,101584.16
2019-01-04T06:34:59.086Z,101588.89
2019-01-04T06:38:01.011Z,101585.72
2019-01-04T06:41:04.208Z,101590.09
2019-01-04T06:44:06.157Z,101578.47
2019-01-04T06:47:13.176Z,101575.27
2019-01-04T06:50:15.142Z,101571.84
2019-01-04T06:53:17.014Z,101577.09
2019-01-04T06:56:18.970Z,101568.83
2019-01-04T06:59:20.867Z,101572.36
2019-01-04T07:02:22.929Z,101569.52
2019-01-04T07:05:24.853Z,101565.29
2019-01-04T07:08:26.862Z,101566.02
2019-01-04T07:11:28.776Z,101565.33
2019-01-04T07:14:30.747Z,101562.98
2019-01-04T07:17:32.696Z,101561.33
2019-01-04T07:20:34.616Z,101560.72
2019-01-04T07:23:36.504Z,101563.08
2019-01-04T07:26:38.445Z,101560.36
2019-01-04T07:29:40.375Z,101564.40
2019-01-04T07:32:42.312Z,101557.00
2019-01-04T07:35:44.263Z,101554.95
2019-01-04T07:38:46.140Z,101555.66
2019-01-04T07:41:48.083Z,101555.31
2019-01-04T07:44:50.003Z,101555.33
2019-01-04T07:47:52.031Z,101553.30
2019-01-04T07:50:54.092Z,101557.69
2019-01-04T07:54:00.044Z,101559.37
2019-01-04T07:57:02.015Z,101562.41
2019-01-04T08:00:09.790Z,101560.21
2019-01-04T08:03:11.907Z,101560.02
2019-01-04T08:06:13.794Z,101560.51
2019-01-04T08:09:17.555Z,101559.98
2019-01-04T08:12:19.445Z,101560.16
2019-01-04T08:15:21.397Z,101557.09
2019-01-04T08:18:23.295Z,101555.37
2019-01-04T08:21:25.209Z,101560.23
2019-01-04T08:24:27.098Z,101557.16
2019-01-04T08:27:29.128Z,101541.87
2019-01-04T08:30:31.386Z,101536.39
2019-01-04T08:33:33.502Z,101537.03
2019-01-04T08:36:35.608Z,101530.89
2019-01-04T08:39:37.567Z,101534.70
2019-01-04T08:42:39.517Z,101531.73
2019-01-04T08:45:42.649Z,101518.52
2019-01-04T08:48:44.622Z,101527.61
2019-01-04T08:51:47.756Z,101521.04
2019-01-04T08:54:49.707Z,101518.53
2019-01-04T08:57:51.745Z,101519.05
2019-01-04T09:00:53.720Z,101517.85
2019-01-04T09:03:55.853Z,101509.34
2019-01-04T09:06:57.970Z,101504.40
2019-01-04T09:10:00.006Z,101501.84
2019-01-04T09:13:02.008Z,101504.73
2019-01-04T09:16:03.997Z,101501.77
2019-01-04T09:19:06.046Z,101488.59
2019-01-04T09:22:08.048Z,101487.41
2019-01-04T09:25:10.014Z,101479.17
2019-01-04T09:28:17.914Z,101473.78
2019-01-04T09:31:16.436Z,101468.42
2019-01-04T09:34:18.606Z,101464.74
2019-01-04T09:37:20.654Z,101465.72
2019-01-04T09:40:22.647Z,101458.69
2019-01-04T09:43:24.723Z,101453.05
2019-01-04T09:46:26.762Z,101447.11
2019-01-04T09:49:28.816Z,101443.50
2019-01-04T09:52:30.870Z,101434.41
2019-01-04T09:55:32.830Z,101419.27
2019-01-04T09:58:34.849Z,101415.16
2019-01-04T10:01:36.808Z,101411.36
2019-01-04T10:04:38.975Z,101406.05
2019-01-04T10:07:40.915Z,101404.64
2019-01-04T10:10:42.921Z,101394.70
2019-01-04T10:13:44.905Z,101387.00
2019-01-04T10:16:46.869Z,101390.02
2019-01-04T10:19:48.882Z,101377.69
2019-01-04T10:22:50.852Z,101375.25
2019-01-04T10:25:52.892Z,101364.84
2019-01-04T10:28:54.914Z,101360.28
2019-01-04T10:31:56.906Z,101343.84
2019-01-04T10:34:59.046Z,101333.76
2019-01-04T10:38:01.042Z,101321.31
2019-01-04T10:41:03.047Z,101312.06
2019-01-04T10:44:05.018Z,101306.55
2019-01-04T10:47:07.052Z,101305.69
2019-01-04T10:50:09.030Z,101292.06
2019-01-04T10:53:11.133Z,101284.77
2019-01-04T10:56:13.057Z,101273.63
2019-01-04T10:59:14.996Z,101271.05
2019-01-04T11:02:17.019Z,101261.32
2019-01-04T11:05:19.084Z,101253.41
2019-01-04T11:08:21.176Z,101250.48
2019-01-04T11:11:23.159Z,101242.48
2019-01-04T11:14:25.236Z,101228.30
2019-01-04T11:17:27.189Z,101217.33
2019-01-04T11:20:43.168Z,101214.32
2019-01-04T11:23:57.952Z,101197.54
2019-01-04T11:26:59.947Z,101182.80
2019-01-04T11:30:17.554Z,101176.59
2019-01-04T11:33:19.525Z,101158.98
2019-01-04T11:36:46.491Z,101147.36
2019-01-04T11:39:54.771Z,101157.62
2019-01-04T11:43:15.426Z,101133.77
2019-01-04T11:46:50.298Z,101119.70
2019-01-04T11:50:01.866Z,101118.47
2019-01-04T11:53:07.722Z,101106.41
2019-01-04T11:56:09.650Z,101102.79
2019-01-04T11:59:11.636Z,101097.87
2019-01-04T12:02:13.569Z,101089.89
2019-01-04T12:05:15.610Z,101083.64
2019-01-04T12:08:17.617Z,101077.44
2019-01-04T12:11:19.737Z,101073.92
2019-01-04T12:14:21.782Z,101067.78
2019-01-04T12:17:23.762Z,101060.23
2019-01-04T12:20:25.733Z,101050.45
2019-01-04T12:23:27.956Z,101047.59
2019-01-04T12:26:30.058Z,101042.14
2019-01-04T12:29:32.296Z,101036.31
2019-01-04T12:32:34.283Z,101031.97
2019-01-04T12:35:36.288Z,101033.03
2019-01-04T12:38:38.406Z,101029.68
2019-01-04T12:41:40.419Z,101029.91
2019-01-04T12:44:42.481Z,101030.33
2019-01-04T12:47:45.721Z,101020.73
2019-01-04T12:50:47.685Z,101021.90
2019-01-04T12:53:49.668Z,101004.98
2019-01-04T12:56:51.630Z,100999.22
2019-01-04T12:59:53.701Z,101003.41
2019-01-04T13:02:55.699Z,100999.03
2019-01-04T13:05:57.740Z,100995.38
2019-01-04T13:08:59.858Z,100985.17
2019-01-04T13:12:01.891Z,100984.35
2019-01-04T13:15:05.507Z,100981.11
2019-01-04T13:18:07.637Z,100978.82
2019-01-04T13:21:09.770Z,100974.16
2019-01-04T13:24:11.946Z,100973.97
2019-01-04T13:27:13.929Z,100958.53
2019-01-04T13:30:16.090Z,100957.62
2019-01-04T13:33:18.042Z,100954.27
2019-01-04T13:36:20.014Z,100946.34
2019-01-04T13:39:22.207Z,100937.17
2019-01-04T13:42:24.271Z,100942.72
2019-01-04T13:45:26.198Z,100940.53
2019-01-04T13:48:28.277Z,100938.12
2019-01-04T13:51:30.251Z,100937.61
2019-01-04T13:54:32.330Z,100941.47
2019-01-04T13:57:34.302Z,100935.92
2019-01-04T14:00:36.312Z,100934.26
2019-01-04T14:03:38.342Z,100927.55
2019-01-04T14:06:40.335Z,100925.77
2019-01-04T14:09:44.119Z,100922.92
2019-01-04T14:12:46.158Z,100923.77
2019-01-04T14:15:48.414Z,100919.26
2019-01-04T14:18:50.484Z,100916.64
2019-01-04T14:21:52.488Z,100915.61
2019-01-04T14:24:54.531Z,100911.53
2019-01-04T14:27:56.449Z,100912.36
2019-01-04T14:30:58.480Z,100912.79
2019-01-04T14:34:03.552Z,100912.13
2019-01-04T14:37:05.526Z,100904.41
2019-01-04T14:40:09.853Z,100902.83
2019-01-04T14:43:11.926Z,100890.49
2019-01-04T14:46:13.969Z,100888.63
2019-01-04T14:49:15.960Z,100892.44
2019-01-04T14:52:17.973Z,100885.87
2019-01-04T14:55:19.964Z,100875.30
2019-01-04T14:58:21.936Z,100865.30
2019-01-04T15:01:23.968Z,100863.96
2019-01-04T15:04:25.964Z,100855.50
2019-01-04T15:07:28.058Z,100852.69
2019-01-04T15:10:30.142Z,100847.16
2019-01-04T15:13:32.294Z,100843.20
2019-01-04T15:16:34.212Z,100846.34
2019-01-04T15:19:36.235Z,100845.71
2019-01-04T15:22:38.357Z,100840.05
2019-01-04T15:25:40.523Z,100829.30
2019-01-04T15:28:42.559Z,100834.00
2019-01-04T15:31:44.639Z,100819.20
2019-01-04T15:34:46.646Z,100819.81
2019-01-04T15:37:48.744Z,100811.99
2019-01-04T15:40:50.830Z,100817.72
2019-01-04T15:43:52.973Z,100811.47
2019-01-04T15:46:55.077Z,100804.15
2019-01-04T15:49:57.213Z,100799.55
2019-01-04T15:52:59.354Z,100801.44
2019-01-04T15:56:01.508Z,100793.19
2019-01-04T15:59:03.623Z,100788.29
2019-01-04T16:02:05.806Z,100777.83
2019-01-04T16:05:08.719Z,100769.48
2019-01-04T16:08:10.921Z,100773.86
2019-01-04T16:11:12.979Z,100768.00
2019-01-04T16:14:15.304Z,100765.19
2019-01-04T16:17:17.310Z,100767.78
2019-01-04T16:20:19.333Z,100765.89
2019-01-04T16:23:21.292Z,100760.46
2019-01-04T16:26:24.306Z,100757.55
2019-01-04T16:29:26.402Z,100752.74
2019-01-04T16:32:28.500Z,100739.77
2019-01-04T16:35:30.529Z,100730.26
2019-01-04T16:38:32.603Z,100723.77
2019-01-04T16:41:34.657Z,100716.97
2019-01-04T16:44:36.761Z,100714.05
2019-01-04T16:47:39.232Z,100721.37
2019-01-04T16:50:41.728Z,100717.36
2019-01-04T16:53:43.695Z,100724.78
2019-01-04T16:56:46.366Z,100724.48
2019-01-04T16:59:48.328Z,100722.39
2019-01-04T17:02:50.486Z,100717.99
2019-01-04T17:05:52.520Z,100713.05
2019-01-04T17:08:54.565Z,100707.62
2019-01-04T17:11:56.486Z,100717.61
2019-01-04T17:14:59.893Z,100718.14
2019-01-04T17:18:01.846Z,100710.61
2019-01-04T17:21:05.448Z,100709.55
2019-01-04T17:24:07.436Z,100704.66
2019-01-04T17:27:09.368Z,100708.43
2019-01-04T17:30:12.629Z,100695.77
2019-01-04T17:33:14.557Z,100702.08
2019-01-04T17:36:16.607Z,100711.93
2019-01-04T17:39:18.723Z,100700.19
2019-01-04T17:42:21.117Z,100699.78
2019-01-04T17:45:23.109Z,100697.66
2019-01-04T17:48:26.398Z,100697.75
2019-01-04T17:51:29.735Z,100689.06
2019-01-04T17:54:31.747Z,100689.69
2019-01-04T17:57:33.714Z,100682.69
2019-01-04T18:00:35.780Z,100684.98
2019-01-04T18:03:37.754Z,100679.90
2019-01-04T18:06:39.707Z,100670.19
2019-01-04T18:09:41.704Z,100669.45
2019-01-04T18:12:43.672Z,100662.66
2019-01-04T18:15:45.815Z,100667.91
2019-01-04T18:18:47.765Z,100664.13
2019-01-04T18:21:49.766Z,100662.03
2019-01-04T18:24:51.827Z,100654.50
2019-01-04T18:27:53.932Z,100651.20
2019-01-04T18:30:55.999Z,100643.37
2019-01-04T18:33:59.409Z,100649.66
2019-01-04T18:37:01.445Z,100640.38
2019-01-04T18:40:06.521Z,100638.78
2019-01-04T18:43:08.612Z,100643.84
2019-01-04T18:46:10.731Z,100648.97
2019-01-04T18:49:12.685Z,100646.79
2019-01-04T18:52:15.080Z,100645.73
2019-01-04T18:55:17.085Z,100652.08
2019-01-04T18:58:19.191Z,100647.95
2019-01-04T19:01:22.402Z,100654.00
2019-01-04T19:04:24.390Z,100642.69
2019-01-04T19:07:26.826Z,100649.57
2019-01-04T19:10:28.855Z,100642.24
2019-01-04T19:13:31.818Z,100639.17
2019-01-04T19:16:34.084Z,100648.23
2019-01-04T19:19:36.101Z,100646.58
2019-01-04T19:22:38.202Z,100651.11
2019-01-04T19:25:40.190Z,100645.28
2019-01-04T19:28:42.536Z,100652.38
2019-01-04T19:31:46.287Z,100661.36
2019-01-04T19:34:51.697Z,100661.06
2019-01-04T19:37:53.646Z,100648.01
2019-01-04T19:40:55.704Z,100657.28
2019-01-04T19:43:57.780Z,100647.03
2019-01-04T19:46:59.766Z,100642.50
2019-01-04T19:50:14.698Z,100639.78
2019-01-04T19:53:17.187Z,100643.04
2019-01-04T19:56:19.531Z,100637.36
2019-01-04T19:59:21.510Z,100636.92
2019-01-04T20:02:23.610Z,100640.70
2019-01-04T20:05:31.117Z,100631.19
2019-01-04T20:09:03.169Z,100623.69
2019-01-04T20:12:48.298Z,100629.03
2019-01-04T20:16:16.920Z,100630.91
2019-01-04T20:19:27.799Z,100626.27
2019-01-04T20:22:34.743Z,100613.03
2019-01-04T20:25:55.137Z,100602.87
2019-01-04T20:29:11.613Z,100604.25
2019-01-04T20:32:31.745Z,100602.89
2019-01-04T20:35:52.259Z,100593.14
2019-01-04T20:39:16.229Z,100584.16
2019-01-04T20:42:22.566Z,100583.58
2019-01-04T20:45:35.662Z,100586.95
2019-01-04T20:48:53.229Z,100583.58
2019-01-04T20:51:57.531Z,100587.50
2019-01-04T20:55:15.093Z,100603.07
2019-01-04T20:58:37.542Z,100592.70
2019-01-04T21:01:41.890Z,100602.98
2019-01-04T21:05:06.105Z,100593.38
2019-01-04T21:08:22.253Z,100590.22
2019-01-04T21:11:28.924Z,100584.94
2019-01-04T21:14:44.629Z,100572.20
2019-01-04T21:17:57.798Z,100577.97
2019-01-04T21:21:16.081Z,100576.08
2019-01-04T21:24:23.209Z,100576.16
2019-01-04T21:27:30.083Z,100567.48
2019-01-04T21:30:33.871Z,100568.48
2019-01-04T21:33:46.930Z,100556.54
2019-01-04T21:37:02.981Z,100548.47
2019-01-04T21:40:09.900Z,100543.36
2019-01-04T21:43:31.864Z,100543.11
2019-01-04T21:46:44.738Z,100537.96
2019-01-04T21:49:48.501Z,100531.77
2019-01-04T21:52:54.859Z,100525.42
2019-01-04T21:55:58.612Z,100522.83
2019-01-04T21:59:14.740Z,100526.16
2019-01-04T22:02:25.658Z,100521.35
2019-01-04T22:05:32.334Z,100526.78
2019-01-04T22:08:48.429Z,100516.95
2019-01-04T22:12:04.271Z,100519.30
2019-01-04T22:15:17.058Z,100525.42
2019-01-04T22:18:32.871Z,100512.88
2019-01-04T22:21:39.719Z,100527.52
2019-01-04T22:24:52.694Z,100520.66
2019-01-04T22:28:05.393Z,100500.81
2019-01-04T22:31:15.285Z,100489.56
2019-01-04T22:34:19.041Z,100487.97
2019-01-04T22:37:25.405Z,100489.05
2019-01-04T22:40:33.349Z,100485.88
2019-01-04T22:43:37.435Z,100476.39
2019-01-04T22:46:44.153Z,100480.39
2019-01-04T22:49:50.671Z,100468.66
2019-01-04T22:53:06.649Z,100459.38
2019-01-04T22:56:34.052Z,100469.73
2019-01-04T22:59:46.732Z,100452.52
2019-01-04T23:03:08.756Z,100446.49
2019-01-04T23:06:18.443Z,100438.92
2019-01-04T23:09:24.967Z,100437.94
2019-01-04T23:12:45.393Z,100437.48
2019-01-04T23:15:49.269Z,100451.98
2019-01-04T23:19:09.588Z,100463.68
2019-01-04T23:22:26.239Z,100450.70
2019-01-04T23:25:30.107Z,100448.27
2019-01-04T23:28:33.894Z,100439.75
2019-01-04T23:31:37.759Z,100436.50
2019-01-04T23:34:53.715Z,100428.96
2019-01-04T23:38:06.745Z,100428.14
2019-01-04T23:41:19.385Z,100424.52
2019-01-04T23:44:23.208Z,100426.86
2019-01-04T23:47:27.170Z,100417.56
2019-01-04T23:50:31.056Z,100423.23
2019-01-04T23:53:52.247Z,100425.58
2019-01-04T23:57:05.354Z,100430.77
